sensor_id;sensor_type;location;lat;lon;timestamp;pressure;altitude;pressure_sealevel;temperature;humidity
52719;BME280;38616;42.140;24.760;2022-08-01T00:00:33;99208.63;;;24.73;44.61
52719;BME280;38616;42.140;24.760;2022-08-01T00:02:58;99208.22;;;24.74;44.60
52719;BME280;38616;42.140;24.760;2022-08-01T00:05:23;99206.78;;;24.43;45.46
52719;BME280;38616;42.140;24.760;2022-08-01T00:07:49;99202.22;;;24.69;44.98
52719;BME280;38616;42.140;24.760;2022-08-01T00:10:15;99204.91;;;25.17;43.80
52719;BME280;38616;42.140;24.760;2022-08-01T00:12:42;99203.69;;;25.15;43.40
52719;BME280;38616;42.140;24.760;2022-08-01T00:15:10;99196.56;;;25.21;43.32
52719;BME280;38616;42.140;24.760;2022-08-01T00:17:35;99200.25;;;25.43;42.97
52719;BME280;38616;42.140;24.760;2022-08-01T00:20:03;99191.41;;;25.16;43.09
52719;BME280;38616;42.140;24.760;2022-08-01T00:22:30;99191.38;;;25.08;43.14
52719;BME280;38616;42.140;24.760;2022-08-01T00:24:56;99188.09;;;24.92;43.66
52719;BME280;38616;42.140;24.760;2022-08-01T00:27:21;99193.25;;;24.93;43.56
52719;BME280;38616;42.140;24.760;2022-08-01T00:29:46;99194.38;;;24.85;43.54
52719;BME280;38616;42.140;24.760;2022-08-01T00:32:12;99190.44;;;24.86;43.31
52719;BME280;38616;42.140;24.760;2022-08-01T00:34:37;99193.00;;;25.17;43.18
52719;BME280;38616;42.140;24.760;2022-08-01T00:37:03;99186.19;;;25.07;42.89
52719;BME280;38616;42.140;24.760;2022-08-01T00:39:28;99194.09;;;25.01;43.09
52719;BME280;38616;42.140;24.760;2022-08-01T00:41:53;99194.97;;;25.13;42.87
52719;BME280;38616;42.140;24.760;2022-08-01T00:44:19;99201.53;;;24.86;43.31
52719;BME280;38616;42.140;24.760;2022-08-01T00:46:44;99207.50;;;24.88;42.95
52719;BME280;38616;42.140;24.760;2022-08-01T00:49:10;99204.00;;;24.95;42.86
52719;BME280;38616;42.140;24.760;2022-08-01T00:51:35;99208.72;;;24.94;42.81
52719;BME280;38616;42.140;24.760;2022-08-01T00:54:01;99204.84;;;25.10;42.61
52719;BME280;38616;42.140;24.760;2022-08-01T00:56:27;99206.91;;;25.20;42.39
52719;BME280;38616;42.140;24.760;2022-08-01T00:58:55;99203.34;;;25.27;42.15
52719;BME280;38616;42.140;24.760;2022-08-01T01:01:21;99203.63;;;25.04;42.23
52719;BME280;38616;42.140;24.760;2022-08-01T01:03:51;99198.44;;;24.95;42.02
52719;BME280;38616;42.140;24.760;2022-08-01T01:12:22;99205.03;;;24.27;43.82
52719;BME280;38616;42.140;24.760;2022-08-01T01:17:41;99219.47;;;24.44;43.61
52719;BME280;38616;42.140;24.760;2022-08-01T01:20:12;99217.47;;;24.44;43.28
52719;BME280;38616;42.140;24.760;2022-08-01T01:30:38;99212.19;;;24.25;43.90
52719;BME280;38616;42.140;24.760;2022-08-01T01:33:08;99202.22;;;24.20;43.82
52719;BME280;38616;42.140;24.760;2022-08-01T01:35:37;99221.56;;;24.13;43.87
52719;BME280;38616;42.140;24.760;2022-08-01T01:38:25;99210.94;;;24.22;44.01
52719;BME280;38616;42.140;24.760;2022-08-01T01:40:52;99209.75;;;24.19;44.22
52719;BME280;38616;42.140;24.760;2022-08-01T01:43:20;99219.41;;;24.40;43.57
52719;BME280;38616;42.140;24.760;2022-08-01T01:45:48;99217.09;;;24.46;43.56
52719;BME280;38616;42.140;24.760;2022-08-01T01:48:17;99221.00;;;24.38;43.84
52719;BME280;38616;42.140;24.760;2022-08-01T01:50:45;99217.94;;;24.50;43.50
52719;BME280;38616;42.140;24.760;2022-08-01T01:53:13;99215.44;;;24.38;43.86
52719;BME280;38616;42.140;24.760;2022-08-01T01:55:40;99210.44;;;24.58;43.61
52719;BME280;38616;42.140;24.760;2022-08-01T01:58:07;99212.44;;;24.57;43.32
52719;BME280;38616;42.140;24.760;2022-08-01T02:00:39;99219.06;;;24.42;43.65
52719;BME280;38616;42.140;24.760;2022-08-01T02:03:06;99225.38;;;24.39;43.65
52719;BME280;38616;42.140;24.760;2022-08-01T02:05:32;99220.44;;;24.21;44.12
52719;BME280;38616;42.140;24.760;2022-08-01T02:08:01;99217.81;;;24.39;43.71
52719;BME280;38616;42.140;24.760;2022-08-01T02:10:28;99215.72;;;24.25;43.79
52719;BME280;38616;42.140;24.760;2022-08-01T02:12:54;99211.34;;;24.20;43.95
52719;BME280;38616;42.140;24.760;2022-08-01T02:15:23;99211.44;;;24.31;43.68
52719;BME280;38616;42.140;24.760;2022-08-01T02:17:50;99202.81;;;23.99;44.31
52719;BME280;38616;42.140;24.760;2022-08-01T02:20:17;99213.22;;;24.09;44.17
52719;BME280;38616;42.140;24.760;2022-08-01T02:22:47;99214.13;;;24.20;43.71
52719;BME280;38616;42.140;24.760;2022-08-01T02:25:24;99213.16;;;24.02;43.71
52719;BME280;38616;42.140;24.760;2022-08-01T02:30:24;99196.00;;;23.96;43.95
52719;BME280;38616;42.140;24.760;2022-08-01T02:32:53;99207.09;;;23.96;44.21
52719;BME280;38616;42.140;24.760;2022-08-01T02:35:26;99212.28;;;23.98;43.77
52719;BME280;38616;42.140;24.760;2022-08-01T02:37:53;99212.38;;;23.71;44.42
52719;BME280;38616;42.140;24.760;2022-08-01T02:40:20;99204.31;;;23.58;44.82
52719;BME280;38616;42.140;24.760;2022-08-01T02:42:49;99209.53;;;23.64;44.90
52719;BME280;38616;42.140;24.760;2022-08-01T02:45:18;99202.31;;;23.55;44.67
52719;BME280;38616;42.140;24.760;2022-08-01T02:47:44;99204.50;;;23.73;44.69
52719;BME280;38616;42.140;24.760;2022-08-01T02:50:12;99203.03;;;23.86;43.94
52719;BME280;38616;42.140;24.760;2022-08-01T02:52:40;99201.06;;;23.87;43.85
52719;BME280;38616;42.140;24.760;2022-08-01T02:55:08;99201.28;;;23.67;44.14
52719;BME280;38616;42.140;24.760;2022-08-01T02:57:35;99202.88;;;23.68;44.01
52719;BME280;38616;42.140;24.760;2022-08-01T03:00:03;99200.00;;;23.61;44.05
52719;BME280;38616;42.140;24.760;2022-08-01T03:02:30;99206.50;;;23.42;44.49
52719;BME280;38616;42.140;24.760;2022-08-01T03:04:57;99196.22;;;23.42;44.46
52719;BME280;38616;42.140;24.760;2022-08-01T03:07:24;99211.53;;;23.63;43.98
52719;BME280;38616;42.140;24.760;2022-08-01T03:09:51;99198.91;;;23.69;43.54
52719;BME280;38616;42.140;24.760;2022-08-01T03:12:20;99192.38;;;23.88;43.14
52719;BME280;38616;42.140;24.760;2022-08-01T03:14:49;99197.25;;;23.61;43.14
52719;BME280;38616;42.140;24.760;2022-08-01T03:17:18;99190.97;;;23.68;42.97
52719;BME280;38616;42.140;24.760;2022-08-01T03:19:46;99200.13;;;23.38;43.34
52719;BME280;38616;42.140;24.760;2022-08-01T03:22:13;99203.69;;;23.38;43.72
52719;BME280;38616;42.140;24.760;2022-08-01T03:24:40;99191.31;;;23.28;43.87
52719;BME280;38616;42.140;24.760;2022-08-01T03:27:08;99196.97;;;23.39;43.34
52719;BME280;38616;42.140;24.760;2022-08-01T03:29:34;99188.31;;;23.44;43.46
52719;BME280;38616;42.140;24.760;2022-08-01T03:32:01;99185.13;;;23.42;43.31
52719;BME280;38616;42.140;24.760;2022-08-01T03:34:28;99195.34;;;23.35;43.19
52719;BME280;38616;42.140;24.760;2022-08-01T03:37:25;99189.50;;;23.43;43.21
52719;BME280;38616;42.140;24.760;2022-08-01T03:40:06;99189.50;;;23.43;43.03
52719;BME280;38616;42.140;24.760;2022-08-01T03:42:44;99192.38;;;23.51;42.73
52719;BME280;38616;42.140;24.760;2022-08-01T03:45:19;99179.78;;;23.60;42.49
52719;BME280;38616;42.140;24.760;2022-08-01T03:47:46;99189.63;;;23.92;41.71
52719;BME280;38616;42.140;24.760;2022-08-01T03:50:15;99195.81;;;23.78;41.95
52719;BME280;38616;42.140;24.760;2022-08-01T03:52:44;99189.41;;;23.70;41.90
52719;BME280;38616;42.140;24.760;2022-08-01T03:55:11;99200.28;;;23.52;42.20
52719;BME280;38616;42.140;24.760;2022-08-01T03:57:38;99197.50;;;23.49;41.94
52719;BME280;38616;42.140;24.760;2022-08-01T04:00:05;99193.69;;;23.30;42.46
52719;BME280;38616;42.140;24.760;2022-08-01T04:02:34;99197.72;;;23.36;42.46
52719;BME280;38616;42.140;24.760;2022-08-01T04:05:00;99192.38;;;23.51;42.08
52719;BME280;38616;42.140;24.760;2022-08-01T04:07:30;99194.81;;;23.56;42.03
52719;BME280;38616;42.140;24.760;2022-08-01T04:09:56;99196.16;;;23.73;41.38
52719;BME280;38616;42.140;24.760;2022-08-01T04:12:22;99204.06;;;23.71;42.07
52719;BME280;38616;42.140;24.760;2022-08-01T04:14:48;99209.25;;;23.72;41.64
52719;BME280;38616;42.140;24.760;2022-08-01T04:17:15;99207.09;;;23.58;41.96
52719;BME280;38616;42.140;24.760;2022-08-01T04:19:41;99198.06;;;23.65;41.99
52719;BME280;38616;42.140;24.760;2022-08-01T04:22:06;99195.88;;;23.82;41.75
52719;BME280;38616;42.140;24.760;2022-08-01T04:24:34;99213.06;;;23.60;42.13
52719;BME280;38616;42.140;24.760;2022-08-01T04:27:02;99207.41;;;23.50;42.43
52719;BME280;38616;42.140;24.760;2022-08-01T04:29:29;99201.03;;;23.83;41.95
52719;BME280;38616;42.140;24.760;2022-08-01T04:31:57;99206.59;;;23.49;42.18
52719;BME280;38616;42.140;24.760;2022-08-01T04:34:25;99215.72;;;23.50;42.46
52719;BME280;38616;42.140;24.760;2022-08-01T04:36:55;99216.63;;;23.61;42.66
52719;BME280;38616;42.140;24.760;2022-08-01T04:39:23;99218.06;;;23.82;42.11
52719;BME280;38616;42.140;24.760;2022-08-01T04:41:52;99210.16;;;23.84;41.50
52719;BME280;38616;42.140;24.760;2022-08-01T04:44:22;99208.69;;;23.97;41.46
52719;BME280;38616;42.140;24.760;2022-08-01T04:46:48;99204.25;;;23.89;41.15
52719;BME280;38616;42.140;24.760;2022-08-01T04:49:15;99206.22;;;24.26;40.44
52719;BME280;38616;42.140;24.760;2022-08-01T04:51:52;99214.91;;;24.21;40.08
52719;BME280;38616;42.140;24.760;2022-08-01T04:54:26;99217.59;;;24.10;40.18
52719;BME280;38616;42.140;24.760;2022-08-01T04:56:53;99213.78;;;24.26;40.13
52719;BME280;38616;42.140;24.760;2022-08-01T04:59:20;99216.16;;;24.27;39.67
52719;BME280;38616;42.140;24.760;2022-08-01T05:02:09;99218.38;;;24.11;39.95
52719;BME280;38616;42.140;24.760;2022-08-01T05:04:35;99213.31;;;24.20;40.15
52719;BME280;38616;42.140;24.760;2022-08-01T05:07:00;99213.91;;;24.44;39.76
52719;BME280;38616;42.140;24.760;2022-08-01T05:09:26;99210.94;;;23.84;40.73
52719;BME280;38616;42.140;24.760;2022-08-01T05:11:52;99208.03;;;24.08;40.30
52719;BME280;38616;42.140;24.760;2022-08-01T05:14:17;99219.25;;;24.18;40.56
52719;BME280;38616;42.140;24.760;2022-08-01T05:16:42;99220.72;;;24.54;39.62
52719;BME280;38616;42.140;24.760;2022-08-01T05:19:09;99205.03;;;24.72;39.36
52719;BME280;38616;42.140;24.760;2022-08-01T05:21:35;99225.41;;;24.94;38.95
52719;BME280;38616;42.140;24.760;2022-08-01T05:24:00;99209.09;;;24.89;38.98
52719;BME280;38616;42.140;24.760;2022-08-01T05:26:26;99209.72;;;24.68;39.01
52719;BME280;38616;42.140;24.760;2022-08-01T05:28:51;99207.91;;;24.90;39.15
52719;BME280;38616;42.140;24.760;2022-08-01T05:31:17;99204.06;;;25.10;38.59
52719;BME280;38616;42.140;24.760;2022-08-01T05:33:42;99205.50;;;24.85;38.86
52719;BME280;38616;42.140;24.760;2022-08-01T05:36:08;99203.53;;;24.89;38.21
52719;BME280;38616;42.140;24.760;2022-08-01T05:38:33;99214.75;;;24.48;38.83
52719;BME280;38616;42.140;24.760;2022-08-01T05:40:58;99209.31;;;24.66;38.09
52719;BME280;38616;42.140;24.760;2022-08-01T05:43:24;99207.25;;;24.56;36.89
52719;BME280;38616;42.140;24.760;2022-08-01T05:45:49;99210.75;;;24.45;37.50
52719;BME280;38616;42.140;24.760;2022-08-01T05:48:15;99205.72;;;24.62;37.73
52719;BME280;38616;42.140;24.760;2022-08-01T05:50:40;99212.25;;;24.35;37.73
52719;BME280;38616;42.140;24.760;2022-08-01T05:53:06;99207.53;;;24.40;37.72
52719;BME280;38616;42.140;24.760;2022-08-01T05:55:31;99213.91;;;24.44;36.72
52719;BME280;38616;42.140;24.760;2022-08-01T05:57:56;99201.69;;;24.52;36.29
52719;BME280;38616;42.140;24.760;2022-08-01T06:00:22;99189.50;;;24.68;36.09
52719;BME280;38616;42.140;24.760;2022-08-01T06:02:47;99200.66;;;24.75;35.94
52719;BME280;38616;42.140;24.760;2022-08-01T06:05:13;99202.63;;;24.71;35.82
52719;BME280;38616;42.140;24.760;2022-08-01T06:07:38;99212.09;;;24.66;35.03
52719;BME280;38616;42.140;24.760;2022-08-01T06:10:05;99197.34;;;25.18;34.56
52719;BME280;38616;42.140;24.760;2022-08-01T06:12:35;99208.88;;;25.20;34.38
52719;BME280;38616;42.140;24.760;2022-08-01T06:15:00;99190.09;;;24.99;34.25
52719;BME280;38616;42.140;24.760;2022-08-01T06:17:26;99184.53;;;24.99;33.42
52719;BME280;38616;42.140;24.760;2022-08-01T06:19:51;99194.97;;;25.20;33.53
52719;BME280;38616;42.140;24.760;2022-08-01T06:22:17;99195.69;;;25.02;32.71
52719;BME280;38616;42.140;24.760;2022-08-01T06:24:42;99193.69;;;25.03;32.90
52719;BME280;38616;42.140;24.760;2022-08-01T06:27:07;99195.81;;;25.28;32.78
52719;BME280;38616;42.140;24.760;2022-08-01T06:29:33;99186.69;;;25.34;32.85
52719;BME280;38616;42.140;24.760;2022-08-01T06:32:00;99176.50;;;25.71;32.18
52719;BME280;38616;42.140;24.760;2022-08-01T06:34:25;99169.75;;;25.69;31.66
52719;BME280;38616;42.140;24.760;2022-08-01T06:36:51;99170.09;;;25.49;31.49
52719;BME280;38616;42.140;24.760;2022-08-01T06:39:16;99194.66;;;25.40;31.92
52719;BME280;38616;42.140;24.760;2022-08-01T06:41:41;99194.91;;;25.05;32.04
52719;BME280;38616;42.140;24.760;2022-08-01T06:44:07;99178.31;;;25.23;32.46
52719;BME280;38616;42.140;24.760;2022-08-01T06:46:34;99177.56;;;25.37;32.34
52719;BME280;38616;42.140;24.760;2022-08-01T06:48:59;99182.06;;;25.64;32.09
52719;BME280;38616;42.140;24.760;2022-08-01T06:51:25;99182.47;;;25.62;31.72
52719;BME280;38616;42.140;24.760;2022-08-01T06:53:50;99187.91;;;25.41;31.86
52719;BME280;38616;42.140;24.760;2022-08-01T06:56:16;99178.31;;;25.23;32.15
52719;BME280;38616;42.140;24.760;2022-08-01T06:58:41;99152.97;;;25.40;32.31
52719;BME280;38616;42.140;24.760;2022-08-01T07:01:07;99180.72;;;25.32;32.03
52719;BME280;38616;42.140;24.760;2022-08-01T07:03:34;99162.97;;;25.55;31.91
52719;BME280;38616;42.140;24.760;2022-08-01T07:05:59;99158.97;;;25.45;32.15
52719;BME280;38616;42.140;24.760;2022-08-01T07:08:25;99167.22;;;25.27;31.78
52719;BME280;38616;42.140;24.760;2022-08-01T07:10:50;99160.06;;;25.26;31.78
52719;BME280;38616;42.140;24.760;2022-08-01T07:13:16;99178.78;;;25.44;31.89
52719;BME280;38616;42.140;24.760;2022-08-01T07:16:31;99160.59;;;25.57;32.29
52719;BME280;38616;42.140;24.760;2022-08-01T07:18:37;99158.25;;;25.85;31.48
52719;BME280;38616;42.140;24.760;2022-08-01T07:21:03;99165.81;;;25.77;31.36
52719;BME280;38616;42.140;24.760;2022-08-01T07:23:28;99170.91;;;25.49;31.65
52719;BME280;38616;42.140;24.760;2022-08-01T07:25:53;99152.66;;;25.70;31.75
52719;BME280;38616;42.140;24.760;2022-08-01T07:28:19;99140.41;;;26.07;31.38
52719;BME280;38616;42.140;24.760;2022-08-01T07:30:44;99149.53;;;26.11;30.75
52719;BME280;38616;42.140;24.760;2022-08-01T07:33:10;99143.59;;;26.02;31.45
52719;BME280;38616;42.140;24.760;2022-08-01T07:35:36;99148.75;;;26.00;31.45
52719;BME280;38616;42.140;24.760;2022-08-01T07:38:04;99168.66;;;26.20;30.75
52719;BME280;38616;42.140;24.760;2022-08-01T07:40:29;99129.66;;;25.88;31.02
52719;BME280;38616;42.140;24.760;2022-08-01T07:42:55;99132.06;;;26.07;31.34
52719;BME280;38616;42.140;24.760;2022-08-01T07:45:20;99147.97;;;26.00;30.91
52719;BME280;38616;42.140;24.760;2022-08-01T07:47:46;99145.97;;;25.96;31.02
52719;BME280;38616;42.140;24.760;2022-08-01T07:50:12;99141.22;;;26.01;31.25
52719;BME280;38616;42.140;24.760;2022-08-01T07:52:38;99139.22;;;26.34;30.62
52719;BME280;38616;42.140;24.760;2022-08-01T07:55:04;99135.63;;;26.44;30.40
52719;BME280;38616;42.140;24.760;2022-08-01T07:57:29;99121.69;;;26.55;30.20
52719;BME280;38616;42.140;24.760;2022-08-01T07:59:55;99130.81;;;26.70;30.28
52719;BME280;38616;42.140;24.760;2022-08-01T08:02:20;99116.88;;;26.66;29.91
52719;BME280;38616;42.140;24.760;2022-08-01T08:04:46;99132.41;;;26.67;30.09
52719;BME280;38616;42.140;24.760;2022-08-01T08:07:11;99141.97;;;26.52;30.03
52719;BME280;38616;42.140;24.760;2022-08-01T08:09:37;99126.50;;;26.18;30.22
52719;BME280;38616;42.140;24.760;2022-08-01T08:12:02;99116.16;;;26.22;30.40
52719;BME280;38616;42.140;24.760;2022-08-01T08:14:28;99099.44;;;26.37;29.73
52719;BME280;38616;42.140;24.760;2022-08-01T08:16:54;99114.19;;;26.23;30.02
52719;BME280;38616;42.140;24.760;2022-08-01T08:19:20;99109.78;;;26.54;30.08
52719;BME280;38616;42.140;24.760;2022-08-01T08:21:45;99068.38;;;26.53;29.55
52719;BME280;38616;42.140;24.760;2022-08-01T08:24:11;99105.81;;;26.34;29.78
52719;BME280;38616;42.140;24.760;2022-08-01T08:26:46;99114.53;;;26.54;29.81
52719;BME280;38616;42.140;24.760;2022-08-01T08:29:12;99104.59;;;26.53;29.76
52719;BME280;38616;42.140;24.760;2022-08-01T08:31:37;99110.13;;;26.60;29.90
52719;BME280;38616;42.140;24.760;2022-08-01T08:34:03;99107.34;;;26.67;29.51
52719;BME280;38616;42.140;24.760;2022-08-01T08:36:28;99103.38;;;26.61;29.38
52719;BME280;38616;42.140;24.760;2022-08-01T08:38:54;99108.91;;;26.90;29.49
52719;BME280;38616;42.140;24.760;2022-08-01T08:41:21;99096.03;;;27.14;29.36
52719;BME280;38616;42.140;24.760;2022-08-01T08:43:47;99123.50;;;27.23;29.14
52719;BME280;38616;42.140;24.760;2022-08-01T08:46:13;99106.63;;;27.45;29.21
52719;BME280;38616;42.140;24.760;2022-08-01T08:48:40;99097.06;;;27.53;29.11
52719;BME280;38616;42.140;24.760;2022-08-01T08:51:06;99107.47;;;27.38;28.82
52719;BME280;38616;42.140;24.760;2022-08-01T08:53:35;99104.00;;;27.16;28.93
52719;BME280;38616;42.140;24.760;2022-08-01T08:56:02;99115.69;;;26.86;29.82
52719;BME280;38616;42.140;24.760;2022-08-01T08:58:29;99100.16;;;26.88;29.78
52719;BME280;38616;42.140;24.760;2022-08-01T09:00:59;99100.16;;;26.88;29.70
52719;BME280;38616;42.140;24.760;2022-08-01T09:03:25;99089.28;;;27.16;29.99
52719;BME280;38616;42.140;24.760;2022-08-01T09:05:50;99083.41;;;26.95;29.97
52719;BME280;38616;42.140;24.760;2022-08-01T09:08:15;99126.75;;;27.04;29.82
52719;BME280;38616;42.140;24.760;2022-08-01T09:10:41;99095.78;;;26.91;30.31
52719;BME280;38616;42.140;24.760;2022-08-01T09:13:12;99100.88;;;27.07;29.98
52719;BME280;38616;42.140;24.760;2022-08-01T09:20:49;99086.31;;;27.44;29.58
52719;BME280;38616;42.140;24.760;2022-08-01T09:23:34;99074.41;;;27.40;29.32
52719;BME280;38616;42.140;24.760;2022-08-01T09:26:00;99093.16;;;27.36;29.55
52719;BME280;38616;42.140;24.760;2022-08-01T09:28:29;99082.34;;;27.46;29.22
52719;BME280;38616;42.140;24.760;2022-08-01T09:30:56;99085.16;;;27.38;29.81
52719;BME280;38616;42.140;24.760;2022-08-01T09:33:22;99082.47;;;27.87;29.06
52719;BME280;38616;42.140;24.760;2022-08-01T09:35:55;99061.56;;;27.57;29.75
52719;BME280;38616;42.140;24.760;2022-08-01T09:38:23;99071.09;;;27.64;29.69
52719;BME280;38616;42.140;24.760;2022-08-01T09:40:59;99075.75;;;27.81;29.40
52719;BME280;38616;42.140;24.760;2022-08-01T09:43:27;99078.19;;;27.72;29.66
52719;BME280;38616;42.140;24.760;2022-08-01T09:45:54;99058.75;;;27.61;29.71
52719;BME280;38616;42.140;24.760;2022-08-01T09:48:21;99073.44;;;27.69;30.15
52719;BME280;38616;42.140;24.760;2022-08-01T09:50:48;99067.97;;;27.47;30.57
52719;BME280;38616;42.140;24.760;2022-08-01T09:53:14;99059.97;;;27.60;29.94
52719;BME280;38616;42.140;24.760;2022-08-01T09:55:40;99067.03;;;27.72;29.65
52719;BME280;38616;42.140;24.760;2022-08-01T09:58:06;99057.06;;;27.75;30.16
52719;BME280;38616;42.140;24.760;2022-08-01T10:00:33;99056.66;;;27.76;29.82
52719;BME280;38616;42.140;24.760;2022-08-01T10:03:00;99104.81;;;27.84;29.95
52719;BME280;38616;42.140;24.760;2022-08-01T10:05:43;99041.50;;;27.77;30.39
52719;BME280;38616;42.140;24.760;2022-08-01T10:08:09;99069.28;;;27.92;30.45
52719;BME280;38616;42.140;24.760;2022-08-01T10:10:35;99070.03;;;27.96;29.91
52719;BME280;38616;42.140;24.760;2022-08-01T10:13:01;99064.56;;;27.81;29.66
52719;BME280;38616;42.140;24.760;2022-08-01T10:15:27;99069.34;;;27.84;30.08
52719;BME280;38616;42.140;24.760;2022-08-01T10:17:59;99047.00;;;27.84;30.21
52719;BME280;38616;42.140;24.760;2022-08-01T10:20:28;99053.97;;;28.14;30.26
52719;BME280;38616;42.140;24.760;2022-08-01T10:22:55;99068.97;;;28.28;29.40
52719;BME280;38616;42.140;24.760;2022-08-01T10:25:23;99025.91;;;28.25;29.37
52719;BME280;38616;42.140;24.760;2022-08-01T10:27:53;99044.75;;;28.17;28.98
52719;BME280;38616;42.140;24.760;2022-08-01T10:30:22;99041.00;;;28.31;29.73
52719;BME280;38616;42.140;24.760;2022-08-01T10:32:50;99034.84;;;28.09;29.74
52719;BME280;38616;42.140;24.760;2022-08-01T10:35:18;99061.13;;;28.15;29.88
52719;BME280;38616;42.140;24.760;2022-08-01T10:37:45;99036.50;;;28.03;29.85
52719;BME280;38616;42.140;24.760;2022-08-01T10:40:14;99051.66;;;28.02;29.69
52719;BME280;38616;42.140;24.760;2022-08-01T10:42:42;99032.31;;;28.26;29.69
52719;BME280;38616;42.140;24.760;2022-08-01T10:45:13;99051.22;;;28.45;29.32
52719;BME280;38616;42.140;24.760;2022-08-01T10:47:44;99055.91;;;28.56;28.58
52719;BME280;38616;42.140;24.760;2022-08-01T10:50:21;99050.09;;;28.39;29.74
52719;BME280;38616;42.140;24.760;2022-08-01T11:03:40;99041.03;;;28.28;29.69
52719;BME280;38616;42.140;24.760;2022-08-01T11:06:06;99042.59;;;28.67;29.06
52719;BME280;38616;42.140;24.760;2022-08-01T11:08:36;99034.63;;;29.00;28.68
52719;BME280;38616;42.140;24.760;2022-08-01T11:11:03;99016.09;;;28.83;29.02
52719;BME280;38616;42.140;24.760;2022-08-01T11:13:59;99024.44;;;29.45;29.06
52719;BME280;38616;42.140;24.760;2022-08-01T11:16:31;99028.41;;;29.16;28.17
52719;BME280;38616;42.140;24.760;2022-08-01T11:18:56;99033.16;;;28.92;28.73
52719;BME280;38616;42.140;24.760;2022-08-01T11:24:15;99029.16;;;28.58;29.08
52719;BME280;38616;42.140;24.760;2022-08-01T11:27:19;99026.31;;;28.62;29.01
52719;BME280;38616;42.140;24.760;2022-08-01T11:32:54;99020.66;;;29.00;28.67
52719;BME280;38616;42.140;24.760;2022-08-01T11:35:24;99011.09;;;29.25;28.64
52719;BME280;38616;42.140;24.760;2022-08-01T11:37:52;99034.84;;;29.13;28.00
52719;BME280;38616;42.140;24.760;2022-08-01T11:42:49;99011.94;;;28.95;28.46
52719;BME280;38616;42.140;24.760;2022-08-01T11:45:15;99018.16;;;29.33;28.27
52719;BME280;38616;42.140;24.760;2022-08-01T11:47:48;99001.72;;;29.12;28.51
52719;BME280;38616;42.140;24.760;2022-08-01T11:53:05;99008.00;;;29.47;28.08
52719;BME280;38616;42.140;24.760;2022-08-01T11:55:31;99000.13;;;29.66;27.40
52719;BME280;38616;42.140;24.760;2022-08-01T11:58:05;99006.13;;;29.37;27.21
52719;BME280;38616;42.140;24.760;2022-08-01T12:00:31;99019.94;;;29.75;26.97
52719;BME280;38616;42.140;24.760;2022-08-01T12:03:02;98998.88;;;29.43;26.94
52719;BME280;38616;42.140;24.760;2022-08-01T12:05:29;99002.78;;;29.49;27.25
52719;BME280;38616;42.140;24.760;2022-08-01T12:07:55;98991.59;;;29.73;27.62
52719;BME280;38616;42.140;24.760;2022-08-01T12:10:24;98986.50;;;29.68;27.19
52719;BME280;38616;42.140;24.760;2022-08-01T12:12:52;98994.19;;;29.84;27.17
52719;BME280;38616;42.140;24.760;2022-08-01T12:15:23;98995.00;;;29.60;27.16
52719;BME280;38616;42.140;24.760;2022-08-01T12:17:56;98988.06;;;29.69;26.86
52719;BME280;38616;42.140;24.760;2022-08-01T12:20:23;98992.38;;;29.73;27.02
52719;BME280;38616;42.140;24.760;2022-08-01T12:22:55;98987.34;;;29.64;27.21
52719;BME280;38616;42.140;24.760;2022-08-01T12:25:22;99001.88;;;29.28;27.19
52719;BME280;38616;42.140;24.760;2022-08-01T12:27:48;99002.84;;;29.45;27.88
52719;BME280;38616;42.140;24.760;2022-08-01T12:30:19;98978.16;;;29.37;26.94
52719;BME280;38616;42.140;24.760;2022-08-01T12:32:48;98978.59;;;29.62;27.15
52719;BME280;38616;42.140;24.760;2022-08-01T12:35:18;98991.97;;;29.75;27.33
52719;BME280;38616;42.140;24.760;2022-08-01T12:38:34;98976.28;;;29.30;27.47
52719;BME280;38616;42.140;24.760;2022-08-01T12:40:36;98986.38;;;29.51;27.17
52719;BME280;38616;42.140;24.760;2022-08-01T12:43:07;98971.03;;;29.83;26.62
52719;BME280;38616;42.140;24.760;2022-08-01T12:45:38;98968.09;;;29.90;26.93
52719;BME280;38616;42.140;24.760;2022-08-01T12:48:10;98964.63;;;30.06;26.69
52719;BME280;38616;42.140;24.760;2022-08-01T12:50:38;98963.00;;;30.29;26.52
52719;BME280;38616;42.140;24.760;2022-08-01T12:53:04;98975.13;;;30.22;26.67
52719;BME280;38616;42.140;24.760;2022-08-01T12:55:30;98979.59;;;29.96;26.90
52719;BME280;38616;42.140;24.760;2022-08-01T12:58:10;98958.81;;;30.17;26.59
52719;BME280;38616;42.140;24.760;2022-08-01T13:00:37;98952.44;;;30.17;26.85
52719;BME280;38616;42.140;24.760;2022-08-01T13:03:22;98943.38;;;30.49;26.50
52719;BME280;38616;42.140;24.760;2022-08-01T13:05:52;98955.66;;;30.35;26.57
52719;BME280;38616;42.140;24.760;2022-08-01T13:10:46;98950.97;;;30.29;26.54
52719;BME280;38616;42.140;24.760;2022-08-01T13:13:13;98955.38;;;30.30;26.64
52719;BME280;38616;42.140;24.760;2022-08-01T13:15:41;98948.81;;;30.16;26.49
52719;BME280;38616;42.140;24.760;2022-08-01T13:18:29;98954.00;;;30.38;26.50
52719;BME280;38616;42.140;24.760;2022-08-01T13:21:14;98950.41;;;30.17;27.10
52719;BME280;38616;42.140;24.760;2022-08-01T13:24:03;98966.44;;;30.37;26.57
52719;BME280;38616;42.140;24.760;2022-08-01T13:26:49;98959.75;;;30.31;26.59
52719;BME280;38616;42.140;24.760;2022-08-01T13:29:18;98949.53;;;30.20;26.72
52719;BME280;38616;42.140;24.760;2022-08-01T13:31:44;98944.59;;;30.08;27.08
52719;BME280;38616;42.140;24.760;2022-08-01T13:34:11;98962.31;;;30.21;27.29
52719;BME280;38616;42.140;24.760;2022-08-01T13:36:37;98977.00;;;29.85;26.88
52719;BME280;38616;42.140;24.760;2022-08-01T13:39:03;98945.41;;;29.85;27.14
52719;BME280;38616;42.140;24.760;2022-08-01T13:41:48;98941.50;;;30.22;26.84
52719;BME280;38616;42.140;24.760;2022-08-01T13:44:14;98949.81;;;30.06;26.91